KFAY/FAY METAR and TAF weather

Enter ICAO airport designator
Station Type Date Time Source
KFAY METAR 2019/08/17 10:46 UTC NOAA

KFAY 171046Z 00000KT 1/4SM FG VV002 23/23 A2999 RMK AO2 T02280228 RVRNO


Station Type Date Time Source
KFAY Decoded METAR 2019/08/17 10:46 UTC NOAA

Station name not available
Aug 17, 2019 - 06:46 AM EDT / 2019.08.17 1046 UTC
Wind: Calm:0
Visibility: 1/4 mile(s):0
Sky conditions: obscured
Weather: fog
Temperature: 73.0 F (22.8 C)
Dew Point: 73.0 F (22.8 C)
Relative Humidity: 100%
Pressure (altimeter): 29.99 in. Hg (1015 hPa)
ob: KFAY 171046Z 00000KT 1/4SM FG VV002 23/23 A2999 RMK AO2 T02280228 RVRNO
cycle: 11

Station Type Date Time Source
KFAY TAF 2019/08/17 11:48 UTC NOAA

TAF
AMD KFAY 171047Z 1711/1806 17003KT 2SM BR OVC003
TEMPO 1711/1712 1/2SM FG OVC001
FM171500 18004KT P6SM OVC015
FM171800 15007KT P6SM VCSH BKN035 BKN250
TEMPO 1719/1723 VRB15G25KT 2SM TSRA BKN015 OVC030CB
FM180000 15004KT P6SM SCT007 SCT035

Example: see airport list